Time;durP1;ratioP1;P1;durP2;ratioP2;P2;SDS_P1;SDS_P2;PMS_P1;PMS_P2;Temp;Humidity;BMP_temperature;BMP_pressure;BME280_temperature;BME280_humidity;BME280_pressure;Samples;Min_cycle;Max_cycle;Signal;HPM_P1;HPM_P2
2023/12/12 00:00:01;;;;;;;92.03;40.77;;;;;;;3.12;100.00;99444.09;5051858;28;20470;-74
2023/12/12 00:02:28;;;;;;;93.03;42.30;;;;;;;3.32;100.00;99437.72;5052492;28;20439;-74
2023/12/12 00:04:54;;;;;;;92.47;42.90;;;;;;;3.49;100.00;99431.59;5052272;28;20500;-74
2023/12/12 00:07:21;;;;;;;98.07;43.33;;;;;;;3.67;100.00;99418.41;5052262;28;20443;-73
2023/12/12 00:09:48;;;;;;;97.93;44.00;;;;;;;3.81;100.00;99410.81;5052170;28;20726;-73
2023/12/12 00:12:14;;;;;;;103.30;47.30;;;;;;;3.81;100.00;99395.06;5051890;28;20204;-73
2023/12/12 00:14:41;;;;;;;94.37;45.07;;;;;;;3.93;100.00;99392.97;5051611;28;20439;-73
2023/12/12 00:17:09;;;;;;;96.23;46.33;;;;;;;4.03;100.00;99391.88;5052231;28;20203;-73
2023/12/12 00:19:41;;;;;;;100.57;44.50;;;;;;;4.12;100.00;99393.56;5051888;28;20475;-75
2023/12/12 00:22:08;;;;;;;83.27;43.53;;;;;;;4.22;100.00;99389.00;5052022;28;20283;-74
2023/12/12 00:24:34;;;;;;;90.37;44.63;;;;;;;4.23;100.00;99364.38;5051832;28;20500;-75
2023/12/12 00:27:01;;;;;;;87.47;43.17;;;;;;;4.30;100.00;99375.88;5051498;28;20672;-74
2023/12/12 00:29:30;;;;;;;88.33;44.07;;;;;;;4.38;100.00;99373.28;5051697;28;20200;-75
2023/12/12 00:31:56;;;;;;;88.07;42.50;;;;;;;4.45;100.00;99366.41;5070143;28;20477;-75
2023/12/12 00:34:24;;;;;;;84.97;42.30;;;;;;;4.55;100.00;99356.56;5071823;28;20200;-75
2023/12/12 00:36:51;;;;;;;86.97;42.70;;;;;;;4.59;100.00;99360.53;5071816;28;20261;-75
2023/12/12 00:39:18;;;;;;;81.53;42.27;;;;;;;4.60;100.00;99356.91;5071275;28;20761;-76
2023/12/12 00:41:45;;;;;;;83.33;41.23;;;;;;;4.59;100.00;99338.66;5070984;28;20257;-77
2023/12/12 00:44:12;;;;;;;77.17;40.47;;;;;;;4.56;100.00;99334.53;5071939;28;20187;-77
2023/12/12 00:46:38;;;;;;;80.53;40.53;;;;;;;4.68;100.00;99342.94;5071802;28;20617;-75
2023/12/12 00:49:05;;;;;;;77.57;40.73;;;;;;;4.70;100.00;99347.06;5074423;28;20192;-74
2023/12/12 00:51:33;;;;;;;79.80;38.60;;;;;;;4.68;100.00;99367.44;5075729;28;20648;-76
2023/12/12 00:54:00;;;;;;;73.13;39.77;;;;;;;4.76;100.00;99371.88;5075837;28;20639;-75
2023/12/12 00:56:28;;;;;;;79.60;39.40;;;;;;;4.82;100.00;99361.53;5075620;28;20192;-76
2023/12/12 00:58:54;;;;;;;74.50;37.50;;;;;;;4.86;100.00;99357.59;5075670;28;20196;-75
2023/12/12 01:01:21;;;;;;;83.00;40.77;;;;;;;4.77;100.00;99363.84;5075199;28;20764;-75
2023/12/12 01:03:48;;;;;;;74.30;37.37;;;;;;;4.76;100.00;99356.09;5075500;28;20199;-76
2023/12/12 01:06:22;;;;;;;72.60;37.13;;;;;;;4.83;100.00;99368.44;5075231;28;20208;-75
2023/12/12 01:08:50;;;;;;;71.93;37.30;;;;;;;4.72;99.96;99366.16;5075366;28;20271;-76
2023/12/12 01:11:17;;;;;;;80.13;37.93;;;;;;;4.69;100.00;99379.63;5074922;28;20199;-75
2023/12/12 01:13:44;;;;;;;81.60;38.23;;;;;;;4.76;100.00;99377.16;5075154;28;20621;-75
2023/12/12 01:16:10;;;;;;;70.23;36.00;;;;;;;4.86;100.00;99375.22;5075066;28;20196;-76
2023/12/12 01:18:37;;;;;;;81.00;37.33;;;;;;;4.84;100.00;99364.84;5075008;28;20645;-75
2023/12/12 01:21:05;;;;;;;74.53;38.73;;;;;;;4.93;100.00;99369.13;5075235;28;20224;-76
2023/12/12 01:23:47;;;;;;;77.63;39.67;;;;;;;4.99;100.00;99357.94;5075178;28;20251;-75
2023/12/12 01:26:15;;;;;;;85.27;38.50;;;;;;;5.04;100.00;99360.91;5075303;28;20192;-76
2023/12/12 01:28:42;;;;;;;76.90;38.03;;;;;;;5.00;98.98;99364.84;5074854;28;20196;-77
2023/12/12 01:31:09;;;;;;;72.23;37.10;;;;;;;4.96;98.76;99363.53;5074989;28;20232;-77
2023/12/12 01:33:35;;;;;;;76.03;37.27;;;;;;;5.00;98.99;99349.06;5074778;28;20189;-78
2023/12/12 01:36:02;;;;;;;73.40;36.23;;;;;;;5.02;99.31;99352.34;5074879;28;20258;-76
2023/12/12 01:38:29;;;;;;;83.57;39.57;;;;;;;4.91;99.05;99355.28;5074680;28;20616;-79
2023/12/12 01:40:55;;;;;;;77.20;37.47;;;;;;;4.89;99.50;99352.00;5074907;28;20224;-78
2023/12/12 01:43:28;;;;;;;83.17;37.20;;;;;;;4.99;100.00;99351.88;5074532;28;20196;-77
2023/12/12 01:45:56;;;;;;;78.70;38.07;;;;;;;5.02;100.00;99336.56;5074545;28;20249;-77
2023/12/12 01:48:23;;;;;;;69.87;35.97;;;;;;;5.01;100.00;99344.59;5074457;28;20663;-77
2023/12/12 01:50:51;;;;;;;78.27;38.70;;;;;;;4.94;99.30;99343.59;5074739;28;20275;-78
2023/12/12 01:53:19;;;;;;;76.83;36.67;;;;;;;4.86;99.23;99347.06;5075028;28;20199;-78
2023/12/12 01:55:46;;;;;;;72.30;37.80;;;;;;;4.86;99.90;99347.06;5074372;28;20196;-77
2023/12/12 01:58:13;;;;;;;80.20;39.43;;;;;;;4.91;100.00;99342.13;5073212;28;20691;-78
2023/12/12 02:00:41;;;;;;;84.07;37.63;;;;;;;4.96;100.00;99337.22;5073012;28;20638;-77
2023/12/12 02:03:08;;;;;;;77.13;38.77;;;;;;;5.02;100.00;99314.66;5074563;28;20196;-76
2023/12/12 02:05:38;;;;;;;82.20;39.93;;;;;;;4.92;99.87;99322.75;5074499;28;20203;-74
2023/12/12 02:08:04;;;;;;;79.87;38.13;;;;;;;4.92;100.00;99330.66;5074399;28;20204;-75
2023/12/12 02:10:31;;;;;;;82.47;38.80;;;;;;;4.98;100.00;99324.72;5074206;28;20204;-75
2023/12/12 02:12:58;;;;;;;74.17;38.17;;;;;;;5.04;99.53;99324.06;5074438;28;20191;-75
2023/12/12 02:15:25;;;;;;;78.60;38.07;;;;;;;5.01;98.54;99321.75;5073996;28;20659;-75
2023/12/12 02:17:53;;;;;;;75.37;36.40;;;;;;;4.89;97.73;99315.19;5073889;28;20680;-74
2023/12/12 02:20:20;;;;;;;75.33;35.53;;;;;;;4.92;98.12;99314.03;5074042;28;20277;-74
2023/12/12 02:22:48;;;;;;;82.00;38.77;;;;;;;4.76;97.52;99308.75;5073722;28;20196;-74
2023/12/12 02:25:17;;;;;;;75.90;35.13;;;;;;;4.74;98.03;99300.22;5073902;28;20199;-74
2023/12/12 02:27:44;;;;;;;72.17;35.30;;;;;;;4.80;98.59;99295.13;5073689;28;20193;-75
2023/12/12 02:30:14;;;;;;;77.43;35.73;;;;;;;4.69;98.03;99282.28;5074018;28;20240;-74
2023/12/12 02:32:40;;;;;;;79.23;36.87;;;;;;;4.12;99.03;99283.19;5074090;28;20504;-76
2023/12/12 02:35:08;;;;;;;80.67;35.10;;;;;;;4.13;99.60;99290.06;5073629;28;20196;-76
2023/12/12 02:37:35;;;;;;;72.50;34.70;;;;;;;4.05;99.81;99271.66;5073460;28;20701;-76
2023/12/12 02:40:03;;;;;;;72.97;31.40;;;;;;;3.69;100.00;99269.41;5073734;28;20227;-74
2023/12/12 02:42:30;;;;;;;71.60;32.77;;;;;;;3.82;100.00;99270.63;5073778;28;20221;-76
2023/12/12 02:44:57;;;;;;;67.47;32.57;;;;;;;3.82;100.00;99270.63;5073461;28;20620;-75
2023/12/12 02:47:24;;;;;;;65.17;31.07;;;;;;;3.82;100.00;99270.63;5073345;28;20282;-75
2023/12/12 02:49:50;;;;;;;63.70;31.83;;;;;;;3.84;100.00;99265.22;5073649;28;20446;-74
2023/12/12 02:52:17;;;;;;;67.53;31.67;;;;;;;3.82;100.00;99264.53;5073568;28;20438;-75
2023/12/12 02:54:44;;;;;;;63.50;31.27;;;;;;;3.85;100.00;99265.03;5073296;28;20201;-74
2023/12/12 02:57:12;;;;;;;59.10;29.73;;;;;;;3.93;100.00;99288.69;5073526;28;20503;-74
2023/12/12 02:59:39;;;;;;;66.20;32.50;;;;;;;4.00;100.00;99316.00;5073344;28;20191;-74
2023/12/12 03:02:06;;;;;;;62.10;32.30;;;;;;;4.06;100.00;99331.13;5073082;28;20277;-74
2023/12/12 03:04:32;;;;;;;66.03;31.20;;;;;;;4.06;100.00;99336.38;5073507;28;20651;-75
2023/12/12 03:06:59;;;;;;;67.90;31.43;;;;;;;4.03;100.00;99336.69;5073236;28;20446;-75
2023/12/12 03:09:26;;;;;;;62.67;31.67;;;;;;;4.01;100.00;99343.09;5073185;28;20708;-75
2023/12/12 03:11:53;;;;;;;69.03;33.33;;;;;;;4.05;100.00;99361.00;5073020;28;20191;-75
2023/12/12 03:14:27;;;;;;;67.67;33.87;;;;;;;4.04;100.00;99346.22;5073315;28;20227;-75
2023/12/12 03:16:54;;;;;;;70.83;34.97;;;;;;;4.12;100.00;99353.31;5073236;28;20524;-75
2023/12/12 03:19:21;;;;;;;68.33;31.80;;;;;;;4.18;100.00;99350.88;5073561;28;20302;-76
2023/12/12 03:21:48;;;;;;;64.33;31.97;;;;;;;4.25;100.00;99341.34;5072637;28;20242;-76
2023/12/12 03:24:14;;;;;;;63.53;31.53;;;;;;;4.30;100.00;99346.97;5072564;28;20192;-76
2023/12/12 03:26:41;;;;;;;61.80;32.17;;;;;;;4.17;100.00;99315.06;5072645;28;20733;-76
2023/12/12 03:29:08;;;;;;;72.37;32.70;;;;;;;4.42;100.00;99345.69;5073000;28;20645;-77
2023/12/12 03:31:36;;;;;;;70.13;33.33;;;;;;;4.41;100.00;99346.66;5072773;28;20231;-76
2023/12/12 03:34:03;;;;;;;76.40;36.67;;;;;;;4.19;100.00;99346.44;5072952;28;20245;-76
2023/12/12 03:36:29;;;;;;;76.07;34.57;;;;;;;4.04;100.00;99355.94;5072180;28;20667;-77
2023/12/12 03:38:56;;;;;;;76.23;37.00;;;;;;;3.89;100.00;99355.66;5072700;28;20192;-76
2023/12/12 03:41:23;;;;;;;78.13;35.20;;;;;;;3.88;100.00;99369.78;5072655;28;20543;-76
2023/12/12 03:43:50;;;;;;;81.53;37.37;;;;;;;3.76;100.00;99372.88;5072110;28;20192;-76
2023/12/12 03:46:18;;;;;;;75.33;37.63;;;;;;;3.75;100.00;99351.00;5072845;28;20612;-76
2023/12/12 03:48:47;;;;;;;88.83;36.87;;;;;;;3.86;100.00;99347.28;5072033;28;20682;-76
2023/12/12 03:51:14;;;;;;;78.13;36.50;;;;;;;3.86;100.00;99340.25;5072494;28;20210;-76
2023/12/12 03:53:41;;;;;;;79.13;37.33;;;;;;;3.92;100.00;99336.16;5072138;28;20746;-76
2023/12/12 03:56:08;;;;;;;89.97;39.03;;;;;;;4.00;100.00;99342.25;5072325;28;20442;-76
2023/12/12 03:58:35;;;;;;;94.43;38.07;;;;;;;4.07;100.00;99345.91;5072359;28;20252;-76
2023/12/12 04:01:02;;;;;;;79.60;37.80;;;;;;;4.10;100.00;99350.84;5072463;28;20227;-75
2023/12/12 04:03:29;;;;;;;89.60;39.67;;;;;;;4.16;100.00;99363.34;5072107;28;20286;-78
2023/12/12 04:05:57;;;;;;;93.40;39.87;;;;;;;4.19;100.00;99347.28;5071958;28;20196;-76
2023/12/12 04:08:24;;;;;;;85.33;38.20;;;;;;;4.21;100.00;99349.75;5071951;28;20625;-78
2023/12/12 04:10:50;;;;;;;94.37;41.00;;;;;;;4.21;100.00;99329.53;5072164;28;20672;-77
2023/12/12 04:13:17;;;;;;;93.57;40.13;;;;;;;4.27;100.00;99318.38;5071713;28;20664;-77
2023/12/12 04:15:44;;;;;;;86.67;39.10;;;;;;;4.27;100.00;99301.78;5072321;28;20636;-76
2023/12/12 04:18:11;;;;;;;80.13;38.87;;;;;;;4.47;100.00;99311.03;5070902;28;20200;-76
2023/12/12 04:20:37;;;;;;;76.97;36.53;;;;;;;4.56;100.00;99317.94;5071623;28;20215;-74
2023/12/12 04:23:05;;;;;;;88.83;39.57;;;;;;;4.63;100.00;99325.03;5071144;28;20730;-75
2023/12/12 04:25:33;;;;;;;97.20;44.07;;;;;;;4.53;100.00;99326.97;5072257;28;20253;-75
2023/12/12 04:28:00;;;;;;;86.50;39.07;;;;;;;4.65;100.00;99323.03;5072175;28;20192;-76
2023/12/12 04:30:26;;;;;;;80.77;38.60;;;;;;;4.74;100.00;99316.00;5071900;28;20228;-77
2023/12/12 04:32:53;;;;;;;85.07;39.33;;;;;;;4.77;100.00;99321.75;5071548;28;20676;-74
2023/12/12 04:35:20;;;;;;;91.33;42.10;;;;;;;4.77;100.00;99324.38;5071929;28;20253;-76
2023/12/12 04:37:47;;;;;;;84.57;37.97;;;;;;;4.78;100.00;99328.66;5071327;28;20705;-76
2023/12/12 04:40:15;;;;;;;84.37;38.87;;;;;;;4.92;100.00;99329.81;5071795;28;20191;-77
2023/12/12 04:42:43;;;;;;;81.97;38.27;;;;;;;4.95;100.00;99335.56;5071746;28;20228;-77
2023/12/12 04:45:10;;;;;;;85.07;38.67;;;;;;;4.94;99.92;99339.19;5071741;28;20227;-78
2023/12/12 04:47:37;;;;;;;80.07;38.50;;;;;;;4.85;99.03;99337.53;5071541;28;20218;-77
2023/12/12 04:50:04;;;;;;;81.23;37.47;;;;;;;4.89;99.94;99345.91;5071350;28;20717;-78
2023/12/12 04:52:31;;;;;;;88.77;37.93;;;;;;;4.88;100.00;99347.75;5070950;28;20243;-78
2023/12/12 04:54:58;;;;;;;87.10;38.53;;;;;;;4.88;100.00;99360.06;5071276;28;20249;-78
2023/12/12 04:57:26;;;;;;;86.27;38.73;;;;;;;4.85;99.67;99365.66;5071785;28;20312;-77
2023/12/12 04:59:53;;;;;;;85.47;37.93;;;;;;;4.81;100.00;99356.44;5071437;28;20191;-77
2023/12/12 05:02:21;;;;;;;77.33;35.83;;;;;;;4.89;99.78;99348.56;5071506;28;20587;-76
2023/12/12 05:04:47;;;;;;;77.30;36.97;;;;;;;4.98;100.00;99339.66;5071115;28;20629;-75
2023/12/12 05:07:16;;;;;;;90.53;39.17;;;;;;;5.03;100.00;99332.94;5071613;28;20193;-76
2023/12/12 05:09:43;;;;;;;97.33;39.63;;;;;;;4.98;100.00;99332.59;5071485;28;20215;-75
2023/12/12 05:12:10;;;;;;;83.90;38.23;;;;;;;5.08;99.63;99341.19;5071557;28;20195;-75
2023/12/12 05:14:38;;;;;;;83.83;39.70;;;;;;;5.10;99.75;99344.44;5071100;28;20736;-75
2023/12/12 05:17:05;;;;;;;80.67;37.63;;;;;;;5.08;99.21;99348.25;5071045;28;20253;-75
2023/12/12 05:19:32;;;;;;;84.63;36.90;;;;;;;4.99;97.90;99346.59;5071079;28;20286;-75
2023/12/12 05:21:59;;;;;;;80.43;36.47;;;;;;;5.05;99.08;99351.19;5071120;28;20683;-75
2023/12/12 05:24:26;;;;;;;79.57;37.53;;;;;;;5.04;98.44;99355.66;5071257;28;20249;-75
2023/12/12 05:26:52;;;;;;;79.07;37.97;;;;;;;5.02;98.64;99367.31;5071158;28;20258;-74
2023/12/12 05:29:19;;;;;;;89.43;39.50;;;;;;;5.01;98.95;99360.41;5070933;28;20203;-75
2023/12/12 05:31:47;;;;;;;92.63;39.00;;;;;;;5.06;98.95;99361.56;5071505;28;20275;-75
2023/12/12 05:34:14;;;;;;;85.97;36.67;;;;;;;5.11;99.31;99371.59;5071582;28;20222;-75
2023/12/12 05:36:41;;;;;;;82.27;37.93;;;;;;;5.12;99.01;99368.81;5074686;28;20187;-75
2023/12/12 05:39:09;;;;;;;86.03;38.07;;;;;;;5.20;98.72;99360.09;5074115;28;20598;-76
2023/12/12 05:41:36;;;;;;;89.87;38.30;;;;;;;5.23;98.79;99354.50;5073642;28;20220;-75
2023/12/12 05:44:03;;;;;;;80.03;38.00;;;;;;;5.19;97.94;99353.19;5074928;28;20560;-75
2023/12/12 05:46:30;;;;;;;78.27;35.67;;;;;;;5.17;97.09;99361.25;5074342;28;20733;-77
2023/12/12 05:48:58;;;;;;;85.03;37.80;;;;;;;5.16;97.04;99370.09;5074429;28;20732;-74
2023/12/12 05:51:25;;;;;;;91.27;39.43;;;;;;;5.17;97.49;99376.19;5074416;28;20267;-74
2023/12/12 05:53:51;;;;;;;81.33;37.07;;;;;;;5.19;97.22;99393.47;5075214;28;20208;-76
2023/12/12 05:56:18;;;;;;;85.93;37.27;;;;;;;5.18;97.31;99388.38;5074680;28;20611;-77
2023/12/12 05:58:45;;;;;;;107.67;37.93;;;;;;;5.16;96.77;99391.16;5074212;28;20203;-78
2023/12/12 06:01:17;;;;;;;81.50;40.53;;;;;;;5.16;97.16;99374.56;5074571;28;20766;-78
2023/12/12 06:03:44;;;;;;;86.57;40.47;;;;;;;5.13;96.76;99386.25;5072040;28;20231;-77
2023/12/12 06:06:12;;;;;;;82.03;39.93;;;;;;;5.10;96.93;99389.19;5067417;28;20216;-77
2023/12/12 06:08:39;;;;;;;89.27;40.50;;;;;;;4.83;97.12;99378.16;5069356;28;20184;-77
2023/12/12 06:11:06;;;;;;;93.17;40.33;;;;;;;4.78;97.44;99394.41;5072093;28;20195;-75
2023/12/12 06:13:33;;;;;;;98.23;44.00;;;;;;;4.83;97.71;99386.06;5069603;28;20314;-77
2023/12/12 06:16:00;;;;;;;113.07;50.70;;;;;;;4.90;98.56;99389.69;5070773;28;20264;-76
2023/12/12 06:18:27;;;;;;;115.83;50.50;;;;;;;4.95;99.50;99382.13;5068403;28;20279;-75
2023/12/12 06:20:54;;;;;;;97.83;49.17;;;;;;;5.07;99.95;99381.63;5069142;28;20188;-75
2023/12/12 06:23:22;;;;;;;115.57;53.07;;;;;;;5.14;99.46;99373.88;5069149;28;20200;-75
2023/12/12 06:25:49;;;;;;;96.00;45.37;;;;;;;5.26;98.61;99391.84;5066786;28;20203;-76
2023/12/12 06:28:15;;;;;;;109.37;54.63;;;;;;;5.27;97.94;99400.56;5068745;28;20211;-75
2023/12/12 06:30:42;;;;;;;125.33;58.20;;;;;;;5.29;98.16;99399.41;5067188;28;20224;-74
2023/12/12 06:33:09;;;;;;;130.00;52.67;;;;;;;5.42;99.45;99391.00;5069031;28;20261;-77
2023/12/12 06:35:36;;;;;;;105.90;54.30;;;;;;;5.72;100.00;99382.41;5070467;28;20253;-76
2023/12/12 06:38:04;;;;;;;122.47;60.03;;;;;;;6.04;98.05;99381.53;5071208;28;20636;-76
2023/12/12 06:40:32;;;;;;;132.30;55.33;;;;;;;6.21;95.75;99383.09;5071823;28;20192;-76
2023/12/12 06:42:58;;;;;;;103.40;48.50;;;;;;;6.44;95.78;99394.53;5070231;28;20219;-76
2023/12/12 06:45:25;;;;;;;92.50;46.33;;;;;;;6.67;93.43;99398.06;5069188;28;20192;-78
2023/12/12 06:47:52;;;;;;;96.13;47.67;;;;;;;6.96;94.79;99392.91;5070438;28;20683;-77
2023/12/12 06:50:19;;;;;;;91.17;44.93;;;;;;;7.39;94.75;99386.97;5069999;28;20755;-76
2023/12/12 06:52:45;;;;;;;102.53;46.47;;;;;;;7.91;91.04;99387.78;5072215;28;20195;-79
2023/12/12 06:55:12;;;;;;;103.30;51.97;;;;;;;8.18;84.96;99395.09;5072565;28;20195;-74
2023/12/12 06:57:40;;;;;;;94.00;46.60;;;;;;;8.11;84.73;99404.75;5069003;28;20196;-76
2023/12/12 07:00:08;;;;;;;99.20;50.67;;;;;;;7.94;85.68;99403.28;5069254;28;20630;-76
2023/12/12 07:02:35;;;;;;;106.67;53.37;;;;;;;7.94;87.65;99392.72;5069110;28;20219;-77
2023/12/12 07:05:04;;;;;;;112.77;58.43;;;;;;;8.05;87.24;99403.66;5066987;28;20195;-76
2023/12/12 07:07:32;;;;;;;106.57;50.50;;;;;;;8.10;85.89;99401.31;5068139;28;20199;-77
2023/12/12 07:09:59;;;;;;;94.97;45.70;;;;;;;8.09;86.79;99396.19;5088283;28;20652;-76
2023/12/12 07:12:25;;;;;;;102.50;45.80;;;;;;;8.04;85.52;99401.22;5076906;28;20195;-76
2023/12/12 07:14:54;;;;;;;95.80;45.37;;;;;;;8.08;86.06;99397.22;5068931;28;20264;-76
2023/12/12 07:17:21;;;;;;;101.13;46.33;;;;;;;7.99;85.43;99416.78;5064420;28;20207;-76
2023/12/12 07:19:48;;;;;;;105.03;46.83;;;;;;;7.93;87.27;99399.00;5070914;28;20227;-76
2023/12/12 07:22:15;;;;;;;94.77;46.80;;;;;;;8.38;87.63;99417.38;5067575;28;20225;-76
2023/12/12 07:24:42;;;;;;;93.17;43.07;;;;;;;8.62;84.52;99425.03;5068084;28;20688;-76
2023/12/12 07:27:09;;;;;;;78.07;41.77;;;;;;;8.65;83.33;99445.81;5070111;28;20601;-76
2023/12/12 07:29:35;;;;;;;85.80;41.63;;;;;;;8.58;82.27;99455.53;5074442;28;20253;-76
2023/12/12 07:32:04;;;;;;;73.37;38.10;;;;;;;8.37;82.11;99458.09;5085633;28;20291;-76
2023/12/12 07:34:31;;;;;;;82.50;40.30;;;;;;;8.24;82.53;99466.66;5080526;28;20679;-75
2023/12/12 07:36:57;;;;;;;70.70;36.93;;;;;;;8.01;83.19;99468.50;5072005;28;20196;-77
2023/12/12 07:39:24;;;;;;;82.97;38.80;;;;;;;8.07;84.38;99462.50;5072583;28;20245;-78
2023/12/12 07:41:51;;;;;;;68.13;37.03;;;;;;;8.10;83.39;99471.91;5068797;28;20227;-77
2023/12/12 07:44:17;;;;;;;64.30;35.10;;;;;;;8.06;82.84;99470.63;5069611;28;20207;-77
2023/12/12 07:46:44;;;;;;;73.47;36.43;;;;;;;7.98;82.62;99486.56;5071411;28;20565;-77
2023/12/12 07:49:12;;;;;;;74.37;35.07;;;;;;;7.78;83.12;99485.41;5069848;28;20195;-76
2023/12/12 07:51:39;;;;;;;78.57;36.77;;;;;;;7.59;84.39;99478.00;5068937;28;20287;-79
2023/12/12 07:54:06;;;;;;;72.93;36.03;;;;;;;7.31;85.29;99476.88;5068556;28;20192;-76
2023/12/12 07:56:33;;;;;;;77.20;38.20;;;;;;;7.21;86.32;99468.34;5069021;28;20198;-77
2023/12/12 07:58:59;;;;;;;86.13;39.50;;;;;;;7.17;85.68;99462.59;5072128;28;20196;-79
2023/12/12 08:01:26;;;;;;;97.03;45.77;;;;;;;7.20;85.31;99464.06;5068889;28;20663;-74
2023/12/12 08:03:53;;;;;;;108.87;47.07;;;;;;;7.23;86.90;99456.59;5069961;28;20283;-77
2023/12/12 08:06:21;;;;;;;85.80;40.83;;;;;;;7.45;87.78;99449.69;5069135;28;20192;-74
2023/12/12 08:08:48;;;;;;;91.67;41.87;;;;;;;7.59;85.28;99451.56;5069524;28;20196;-71
2023/12/12 08:11:16;;;;;;;85.53;42.23;;;;;;;7.86;88.07;99443.88;5068829;28;20223;-77
2023/12/12 08:13:43;;;;;;;106.73;59.97;;;;;;;8.17;86.72;99451.66;5068719;28;20752;-77
2023/12/12 08:16:10;;;;;;;103.87;49.80;;;;;;;8.42;83.04;99461.00;5068463;28;20188;-72
2023/12/12 08:18:37;;;;;;;92.30;47.87;;;;;;;8.57;81.56;99459.16;5068842;28;20199;-77
2023/12/12 08:21:06;;;;;;;80.23;39.57;;;;;;;8.57;80.95;99470.56;5069584;28;20257;-74
2023/12/12 08:23:34;;;;;;;74.70;38.97;;;;;;;8.61;80.75;99471.00;5067868;28;20226;-71
2023/12/12 08:26:01;;;;;;;78.60;39.77;;;;;;;8.67;80.63;99470.28;5068834;28;20184;-77
2023/12/12 08:28:28;;;;;;;79.97;41.47;;;;;;;8.53;79.41;99473.78;5069725;28;20630;-76
2023/12/12 08:30:55;;;;;;;78.87;39.30;;;;;;;8.46;81.06;99475.50;5069277;28;20257;-77
2023/12/12 08:33:21;;;;;;;71.23;37.20;;;;;;;8.51;81.55;99471.31;5072788;28;20225;-77
2023/12/12 08:35:48;;;;;;;84.07;40.03;;;;;;;8.52;80.95;99472.13;5067716;28;20617;-75
2023/12/12 08:38:15;;;;;;;90.00;42.47;;;;;;;8.62;81.04;99464.75;5070768;28;20196;-76
2023/12/12 08:40:43;;;;;;;94.73;42.93;;;;;;;8.86;80.99;99456.50;5071351;28;20618;-78
2023/12/12 08:43:10;;;;;;;89.47;42.27;;;;;;;9.08;78.21;99476.69;5068270;28;20306;-75
2023/12/12 08:45:36;;;;;;;88.83;42.83;;;;;;;9.02;77.89;99472.97;5070115;28;20196;-77
2023/12/12 08:48:03;;;;;;;87.47;42.47;;;;;;;9.00;78.14;99463.56;5070219;28;20200;-76
2023/12/12 08:50:30;;;;;;;91.23;41.97;;;;;;;8.77;79.02;99465.53;5070952;28;20260;-76
2023/12/12 08:52:57;;;;;;;79.90;41.90;;;;;;;8.66;79.52;99466.81;5071047;28;20245;-76
2023/12/12 08:55:24;;;;;;;89.93;41.90;;;;;;;8.55;79.81;99456.72;5071377;28;20211;-77
2023/12/12 08:57:52;;;;;;;89.00;45.27;;;;;;;8.63;80.44;99453.13;5071189;28;20283;-77
2023/12/12 09:00:19;;;;;;;99.43;44.70;;;;;;;8.72;80.17;99457.31;5067542;28;20282;-77
2023/12/12 09:02:46;;;;;;;85.70;42.37;;;;;;;8.76;79.13;99464.72;5058682;28;20247;-78
2023/12/12 09:05:13;;;;;;;86.77;41.70;;;;;;;8.86;80.53;99453.84;5072101;28;20203;-79
2023/12/12 09:07:41;;;;;;;95.73;44.57;;;;;;;9.06;79.66;99445.09;5070980;28;20207;-76
2023/12/12 09:10:08;;;;;;;84.83;41.83;;;;;;;9.20;78.34;99454.00;5073213;28;20200;-78
2023/12/12 09:12:35;;;;;;;92.83;42.50;;;;;;;9.46;77.09;99456.91;5075323;28;20240;-76
2023/12/12 09:15:05;;;;;;;90.70;42.60;;;;;;;9.63;77.59;99452.97;5074468;28;20188;-77
2023/12/12 09:17:32;;;;;;;80.50;41.93;;;;;;;9.85;75.33;99451.97;5072674;28;20184;-76
2023/12/12 09:20:00;;;;;;;79.77;40.73;;;;;;;10.17;76.62;99448.75;5078321;28;20199;-76
2023/12/12 09:22:27;;;;;;;77.87;41.10;;;;;;;10.50;74.69;99453.22;5076992;28;20248;-76
2023/12/12 09:24:54;;;;;;;77.67;41.13;;;;;;;10.74;73.12;99454.56;5073466;28;20566;-78
2023/12/12 09:27:21;;;;;;;75.97;40.93;;;;;;;10.90;70.91;99443.59;5074868;28;20191;-75
2023/12/12 09:29:48;;;;;;;89.83;41.73;;;;;;;11.02;71.85;99437.50;5077166;28;20254;-71
2023/12/12 09:32:16;;;;;;;79.37;40.60;;;;;;;11.13;72.13;99430.78;5075314;28;20293;-76
2023/12/12 09:34:43;;;;;;;83.17;40.93;;;;;;;11.31;70.83;99433.69;5078977;28;20623;-74
2023/12/12 09:37:09;;;;;;;86.70;40.53;;;;;;;11.30;69.45;99429.38;5078151;28;20281;-77
2023/12/12 09:39:36;;;;;;;90.50;41.97;;;;;;;11.45;68.65;99435.34;5076765;28;20190;-74
2023/12/12 09:42:12;;;;;;;83.43;43.23;;;;;;;11.53;69.30;99429.84;5075786;28;20208;-75
2023/12/12 09:44:42;;;;;;;80.63;42.30;;;;;;;11.54;69.41;99420.84;5075251;28;20193;-77
2023/12/12 09:47:10;;;;;;;82.97;42.57;;;;;;;11.71;69.69;99416.78;5074687;28;20214;-75
2023/12/12 09:49:39;;;;;;;83.13;42.13;;;;;;;11.89;68.96;99416.16;5074151;28;20194;-73
2023/12/12 09:52:07;;;;;;;72.77;40.00;;;;;;;12.09;68.38;99417.75;5074628;28;20228;-73
2023/12/12 09:54:36;;;;;;;75.73;41.70;;;;;;;12.32;68.19;99412.81;5074878;28;20195;-77
2023/12/12 09:57:03;;;;;;;70.37;41.27;;;;;;;12.51;66.50;99413.78;5053978;28;20217;-75
2023/12/12 09:59:30;;;;;;;69.73;39.20;;;;;;;12.54;66.13;99414.16;5054565;28;20196;-75
2023/12/12 10:01:58;;;;;;;73.13;38.13;;;;;;;12.55;66.49;99413.16;5054435;28;20626;-73
2023/12/12 10:04:26;;;;;;;72.53;39.10;;;;;;;12.59;65.68;99417.03;5054403;28;20191;-75
2023/12/12 10:06:59;;;;;;;70.30;37.70;;;;;;;12.70;66.75;99418.22;5094384;28;20202;-73
2023/12/12 10:09:26;;;;;;;64.10;39.37;;;;;;;12.82;66.15;99412.00;5094649;28;20296;-73
2023/12/12 10:11:53;;;;;;;73.60;41.60;;;;;;;12.89;64.97;99406.63;5083852;28;20188;-73
2023/12/12 10:14:38;;;;;;;81.03;39.57;;;;;;;12.79;66.17;99401.78;5074190;28;20339;-74
2023/12/12 10:17:06;;;;;;;74.43;40.67;;;;;;;12.73;66.16;99402.63;5074603;28;20194;-77
2023/12/12 10:19:33;;;;;;;86.80;46.03;;;;;;;12.84;65.79;99395.78;5072134;28;20214;-77
2023/12/12 10:22:05;;;;;;;78.03;41.83;;;;;;;12.88;65.22;99411.16;5070603;28;20644;-75
2023/12/12 10:24:32;;;;;;;73.33;39.43;;;;;;;12.87;65.76;99406.84;5071946;28;20649;-75
2023/12/12 10:26:59;;;;;;;73.03;41.43;;;;;;;12.91;66.15;99410.72;5071552;28;20886;-75
2023/12/12 10:29:26;;;;;;;80.63;42.33;;;;;;;13.04;66.22;99405.38;5070923;28;20200;-75
2023/12/12 10:31:53;;;;;;;77.07;42.07;;;;;;;13.06;64.71;99416.63;5069416;28;20236;-73
2023/12/12 10:34:23;;;;;;;86.83;47.50;;;;;;;13.03;65.51;99406.38;5071882;28;20757;-76
2023/12/12 10:36:50;;;;;;;77.63;41.80;;;;;;;13.08;64.38;99409.25;5069384;28;20210;-76
2023/12/12 10:39:18;;;;;;;84.20;45.27;;;;;;;13.16;65.46;99401.00;5071446;28;20800;-77
2023/12/12 10:41:52;;;;;;;76.73;43.57;;;;;;;13.13;64.76;99390.75;5067223;28;20188;-77
2023/12/12 10:44:21;;;;;;;81.93;43.20;;;;;;;13.14;65.37;99389.72;5065903;28;20211;-75
2023/12/12 10:46:53;;;;;;;78.40;42.60;;;;;;;13.22;65.15;99384.13;5068019;28;20291;-77
2023/12/12 10:49:22;;;;;;;80.57;45.17;;;;;;;13.23;65.15;99382.28;5069058;28;20261;-78
2023/12/12 10:51:51;;;;;;;92.47;48.63;;;;;;;13.23;65.11;99384.94;5072047;28;20282;-78
2023/12/12 10:54:22;;;;;;;88.00;46.13;;;;;;;13.25;64.84;99396.22;5071951;28;20196;-76
2023/12/12 10:56:50;;;;;;;82.70;44.03;;;;;;;13.18;65.69;99390.91;5072415;28;20188;-77
2023/12/12 10:59:18;;;;;;;80.80;43.73;;;;;;;13.10;65.90;99393.84;5071818;28;20721;-81
2023/12/12 11:01:47;;;;;;;79.57;44.90;;;;;;;13.25;66.08;99380.19;5073049;28;20200;-75
2023/12/12 11:04:15;;;;;;;84.97;45.03;;;;;;;13.32;65.57;99386.31;5072174;28;20292;-76
2023/12/12 11:06:42;;;;;;;90.03;46.90;;;;;;;13.43;64.74;99397.09;5073425;28;20188;-75
2023/12/12 11:09:10;;;;;;;87.83;46.17;;;;;;;13.58;64.48;99386.94;5072223;28;20188;-75
2023/12/12 11:11:40;;;;;;;89.83;47.97;;;;;;;13.64;64.65;99386.06;5068505;28;20228;-75
2023/12/12 11:14:09;;;;;;;99.17;46.90;;;;;;;13.70;64.84;99379.84;5057955;28;20623;-76
2023/12/12 11:16:37;;;;;;;96.63;46.73;;;;;;;13.84;64.59;99377.88;5072499;28;20638;-74
2023/12/12 11:19:04;;;;;;;84.70;46.77;;;;;;;13.90;63.87;99369.00;5072640;28;20546;-75